Time;durP1;ratioP1;P1;durP2;ratioP2;P2;SDS_P1;SDS_P2;PMS_P1;PMS_P2;Temp;Humidity;BMP_temperature;BMP_pressure;BME280_temperature;BME280_humidity;BME280_pressure;Samples;Min_cycle;Max_cycle;Signal;HPM_P1;HPM_P2
2023/09/13 00:01:38;;;;;;;7.22;3.05;;;;;;;;;;6225527;28;20530;-66
2023/09/13 00:04:41;;;;;;;6.85;3.08;;;;;;;;;;6218691;28;20059;-66
2023/09/13 00:07:43;;;;;;;6.18;4.20;;;;;;;;;;6229208;28;20824;-66
2023/09/13 00:10:45;;;;;;;6.20;3.53;;;;;;;;;;6213317;28;20054;-66
2023/09/13 00:13:47;;;;;;;9.32;3.25;;;;;;;;;;6223410;28;20046;-66
2023/09/13 00:16:50;;;;;;;9.73;3.75;;;;;;;;;;6216861;28;20042;-66
2023/09/13 00:19:56;;;;;;;7.50;3.20;;;;;;;;;;6222152;28;20052;-65
2023/09/13 00:22:58;;;;;;;7.65;3.42;;;;;;;;;;6224461;28;20038;-66
2023/09/13 00:26:00;;;;;;;4.80;3.70;;;;;;;;;;6225936;28;20072;-65
2023/09/13 00:29:02;;;;;;;7.57;3.08;;;;;;;;;;6219049;28;20299;-65
2023/09/13 00:32:04;;;;;;;8.18;3.55;;;;;;;;;;6234252;28;20165;-72
2023/09/13 00:35:06;;;;;;;6.38;3.65;;;;;;;;;;6225008;28;20424;-71
2023/09/13 00:38:08;;;;;;;6.60;3.47;;;;;;;;;;6232709;28;20045;-72
2023/09/13 00:41:11;;;;;;;4.75;3.25;;;;;;;;;;6226213;28;20439;-72
2023/09/13 00:44:13;;;;;;;5.90;3.03;;;;;;;;;;6221118;28;20055;-72
2023/09/13 00:47:17;;;;;;;5.75;3.13;;;;;;;;;;6227611;28;20049;-71
2023/09/13 00:50:20;;;;;;;6.22;4.00;;;;;;;;;;6222495;28;20532;-71
2023/09/13 00:53:24;;;;;;;5.72;3.30;;;;;;;;;;6227961;28;20056;-70
2023/09/13 00:56:25;;;;;;;5.95;3.10;;;;;;;;;;6222435;28;20053;-64
2023/09/13 00:59:27;;;;;;;7.63;3.08;;;;;;;;;;6222645;28;20439;-64
2023/09/13 01:02:29;;;;;;;8.75;4.40;;;;;;;;;;6216107;28;20113;-64
2023/09/13 01:05:32;;;;;;;10.23;3.70;;;;;;;;;;6200231;28;20049;-64
2023/09/13 01:08:34;;;;;;;5.70;3.05;;;;;;;;;;6222962;28;20045;-65
2023/09/13 01:11:36;;;;;;;6.60;4.65;;;;;;;;;;6223134;28;20056;-65
2023/09/13 01:14:38;;;;;;;4.68;2.67;;;;;;;;;;6227294;28;20124;-64
2023/09/13 01:18:06;;;;;;;6.10;2.95;;;;;;;;;;6226285;28;20067;-65
2023/09/13 01:21:32;;;;;;;9.25;4.50;;;;;;;;;;6225187;28;20046;-65
2023/09/13 01:24:40;;;;;;;7.13;3.90;;;;;;;;;;6222895;28;20054;-64
2023/09/13 01:27:58;;;;;;;7.35;4.40;;;;;;;;;;6221041;28;20054;-64
2023/09/13 01:31:09;;;;;;;6.72;4.80;;;;;;;;;;6226916;28;20049;-65
2023/09/13 01:34:12;;;;;;;8.57;4.75;;;;;;;;;;6219001;28;20626;-65
2023/09/13 01:37:14;;;;;;;7.20;4.05;;;;;;;;;;6229886;28;20850;-64
2023/09/13 01:40:16;;;;;;;8.63;3.83;;;;;;;;;;6223918;28;20060;-64
2023/09/13 01:43:19;;;;;;;7.80;4.30;;;;;;;;;;6217887;28;20593;-64
2023/09/13 01:46:27;;;;;;;7.45;4.20;;;;;;;;;;6221087;28;20440;-66
2023/09/13 01:49:31;;;;;;;6.50;4.03;;;;;;;;;;6214011;28;20062;-65
2023/09/13 01:52:33;;;;;;;9.63;5.45;;;;;;;;;;6210333;28;20048;-65
2023/09/13 01:55:35;;;;;;;10.90;4.45;;;;;;;;;;6223418;28;20049;-65
2023/09/13 01:58:37;;;;;;;9.98;3.80;;;;;;;;;;6216208;28;20057;-65
2023/09/13 02:01:39;;;;;;;6.20;4.20;;;;;;;;;;6223437;28;20050;-64
2023/09/13 02:04:42;;;;;;;9.85;4.43;;;;;;;;;;6225443;28;20045;-65
2023/09/13 02:07:44;;;;;;;6.50;4.32;;;;;;;;;;6225567;28;20184;-65
2023/09/13 02:10:47;;;;;;;8.05;4.47;;;;;;;;;;6218200;28;20068;-64
2023/09/13 02:13:50;;;;;;;6.45;3.63;;;;;;;;;;6230873;28;20050;-65
2023/09/13 02:16:52;;;;;;;7.93;5.00;;;;;;;;;;6226550;28;20085;-65
2023/09/13 02:19:54;;;;;;;8.07;5.10;;;;;;;;;;6216706;28;20046;-65
2023/09/13 02:22:56;;;;;;;7.60;5.85;;;;;;;;;;6227635;28;20480;-65
2023/09/13 02:25:58;;;;;;;6.82;4.40;;;;;;;;;;6216466;28;20100;-65
2023/09/13 02:29:03;;;;;;;18.08;5.25;;;;;;;;;;6211713;28;20053;-65
2023/09/13 02:32:08;;;;;;;7.82;5.65;;;;;;;;;;6224737;28;20049;-65
2023/09/13 02:35:11;;;;;;;6.50;4.07;;;;;;;;;;6214283;28;20054;-66
2023/09/13 02:38:15;;;;;;;11.35;5.50;;;;;;;;;;6219183;28;20065;-65
2023/09/13 02:41:17;;;;;;;7.82;5.07;;;;;;;;;;6223259;28;20115;-66
2023/09/13 02:44:20;;;;;;;9.88;5.57;;;;;;;;;;6222081;28;20049;-65
2023/09/13 02:47:22;;;;;;;12.77;4.88;;;;;;;;;;6229319;28;20525;-65
2023/09/13 02:50:24;;;;;;;9.77;4.03;;;;;;;;;;6223395;28;20053;-65
2023/09/13 02:53:26;;;;;;;8.13;4.22;;;;;;;;;;6223616;28;20052;-64
2023/09/13 02:56:28;;;;;;;6.65;4.53;;;;;;;;;;6218822;28;20057;-65
2023/09/13 02:59:31;;;;;;;6.95;5.47;;;;;;;;;;6221216;28;20081;-65
2023/09/13 03:02:33;;;;;;;7.57;4.38;;;;;;;;;;6221658;28;20090;-65
2023/09/13 03:05:36;;;;;;;7.72;5.85;;;;;;;;;;6212592;28;20129;-65
2023/09/13 03:08:39;;;;;;;10.75;5.13;;;;;;;;;;6225194;28;20050;-65
2023/09/13 03:11:42;;;;;;;15.02;5.95;;;;;;;;;;6228566;28;20052;-65
2023/09/13 03:14:44;;;;;;;8.98;5.50;;;;;;;;;;6224100;28;20191;-65
2023/09/13 03:17:47;;;;;;;10.75;5.47;;;;;;;;;;6211751;28;20828;-65
2023/09/13 03:20:49;;;;;;;7.05;4.78;;;;;;;;;;6233325;28;20037;-65
2023/09/13 03:23:52;;;;;;;8.20;5.75;;;;;;;;;;6222524;28;20053;-65
2023/09/13 03:26:55;;;;;;;6.57;4.97;;;;;;;;;;6230036;28;20131;-65
2023/09/13 03:30:00;;;;;;;7.68;4.60;;;;;;;;;;6217437;28;20734;-65
2023/09/13 03:33:04;;;;;;;6.97;5.22;;;;;;;;;;6223655;28;20536;-65
2023/09/13 03:36:08;;;;;;;8.30;4.68;;;;;;;;;;6220322;28;20560;-65
2023/09/13 03:39:10;;;;;;;13.23;6.07;;;;;;;;;;6226997;28;20045;-65
2023/09/13 03:42:13;;;;;;;7.47;5.93;;;;;;;;;;6240602;28;20065;-65
2023/09/13 03:45:15;;;;;;;7.05;4.63;;;;;;;;;;6218664;28;20440;-64
2023/09/13 03:48:17;;;;;;;6.50;4.53;;;;;;;;;;6227078;28;20178;-65
2023/09/13 03:51:19;;;;;;;11.80;6.93;;;;;;;;;;6235888;28;20328;-65
2023/09/13 03:54:22;;;;;;;9.70;5.20;;;;;;;;;;6218662;28;20057;-65
2023/09/13 03:57:24;;;;;;;10.77;5.97;;;;;;;;;;6234497;28;20151;-64
2023/09/13 04:00:26;;;;;;;7.85;5.38;;;;;;;;;;6231408;28;20402;-64
2023/09/13 04:03:28;;;;;;;9.88;5.68;;;;;;;;;;6228436;28;20582;-65
2023/09/13 04:06:31;;;;;;;9.50;6.10;;;;;;;;;;6217797;28;20061;-65
2023/09/13 04:09:33;;;;;;;10.50;5.82;;;;;;;;;;6201991;28;20083;-65
2023/09/13 04:12:36;;;;;;;8.95;4.90;;;;;;;;;;6232694;28;20587;-65
2023/09/13 04:15:38;;;;;;;16.98;5.80;;;;;;;;;;6229867;28;20041;-65
2023/09/13 04:18:40;;;;;;;11.00;6.25;;;;;;;;;;6227097;28;20062;-65
2023/09/13 04:21:42;;;;;;;13.20;6.95;;;;;;;;;;6217084;28;20050;-64
2023/09/13 04:24:44;;;;;;;8.27;5.70;;;;;;;;;;6219595;28;20052;-66
2023/09/13 04:27:48;;;;;;;10.00;5.53;;;;;;;;;;6235125;28;20054;-65
2023/09/13 04:30:51;;;;;;;9.60;6.18;;;;;;;;;;6220154;28;20060;-65
2023/09/13 04:33:55;;;;;;;13.38;6.38;;;;;;;;;;6230860;28;20053;-65
2023/09/13 04:37:05;;;;;;;12.07;6.65;;;;;;;;;;6226674;28;20114;-65
2023/09/13 04:40:08;;;;;;;12.02;7.38;;;;;;;;;;6220181;28;20054;-64
2023/09/13 04:43:10;;;;;;;11.43;7.20;;;;;;;;;;6234383;28;20808;-65
2023/09/13 04:46:13;;;;;;;12.10;7.90;;;;;;;;;;6218632;28;20053;-65
2023/09/13 04:49:16;;;;;;;10.93;7.03;;;;;;;;;;6233052;28;20045;-64
2023/09/13 04:52:18;;;;;;;12.98;6.90;;;;;;;;;;6228240;28;20037;-66
2023/09/13 04:55:23;;;;;;;8.55;5.93;;;;;;;;;;6186894;28;20073;-65
2023/09/13 04:58:26;;;;;;;9.60;7.18;;;;;;;;;;6225641;28;20116;-64
2023/09/13 05:01:33;;;;;;;11.10;6.38;;;;;;;;;;6199192;28;20463;-64
2023/09/13 05:04:35;;;;;;;11.80;7.70;;;;;;;;;;6218417;28;20057;-64
2023/09/13 05:07:37;;;;;;;15.70;9.25;;;;;;;;;;6222944;28;20382;-63
2023/09/13 05:10:42;;;;;;;14.82;7.07;;;;;;;;;;6220175;28;20574;-64
2023/09/13 05:13:47;;;;;;;11.57;6.72;;;;;;;;;;6217801;28;20037;-64
2023/09/13 05:16:49;;;;;;;;;;;;;;;;;;6201998;28;20689;-64
2023/09/13 05:19:51;;;;;;;10.10;6.38;;;;;;;;;;6218641;28;19930;-65
2023/09/13 05:22:53;;;;;;;9.77;5.95;;;;;;;;;;6222445;28;20053;-66
2023/09/13 05:25:55;;;;;;;11.65;7.45;;;;;;;;;;6229236;28;20048;-65
2023/09/13 05:28:58;;;;;;;9.80;4.65;;;;;;;;;;6215516;28;20045;-65
2023/09/13 05:32:00;;;;;;;8.10;4.65;;;;;;;;;;6237140;28;20420;-67
2023/09/13 05:35:03;;;;;;;8.40;4.63;;;;;;;;;;6221644;28;20041;-64
2023/09/13 05:38:05;;;;;;;7.85;5.18;;;;;;;;;;6233171;28;20046;-64
2023/09/13 05:41:08;;;;;;;8.52;5.43;;;;;;;;;;6226735;28;20053;-66
2023/09/13 05:44:10;;;;;;;10.80;4.75;;;;;;;;;;6229914;28;20103;-65
2023/09/13 05:47:12;;;;;;;7.25;4.22;;;;;;;;;;6230148;28;20045;-65
2023/09/13 05:50:14;;;;;;;9.13;5.20;;;;;;;;;;6217064;28;20197;-65
2023/09/13 05:53:19;;;;;;;6.75;4.05;;;;;;;;;;6227667;28;20192;-65
2023/09/13 05:56:21;;;;;;;7.50;4.13;;;;;;;;;;6214621;28;20073;-65
2023/09/13 05:59:27;;;;;;;8.10;4.45;;;;;;;;;;6213998;28;20050;-64
2023/09/13 06:02:29;;;;;;;8.68;4.15;;;;;;;;;;6215125;28;20034;-65
2023/09/13 06:05:31;;;;;;;6.60;5.45;;;;;;;;;;6213779;28;20043;-64
2023/09/13 06:08:33;;;;;;;7.63;5.43;;;;;;;;;;6219796;28;20049;-67
2023/09/13 06:11:35;;;;;;;6.60;3.95;;;;;;;;;;6218668;28;20054;-63
2023/09/13 06:14:38;;;;;;;6.85;4.57;;;;;;;;;;6216527;28;20864;-72
2023/09/13 06:17:40;;;;;;;9.38;4.05;;;;;;;;;;6225194;28;20053;-74
2023/09/13 06:20:42;;;;;;;5.72;4.70;;;;;;;;;;6218041;28;20049;-71
2023/09/13 06:23:45;;;;;;;6.57;3.90;;;;;;;;;;6223810;28;20135;-63
2023/09/13 06:26:47;;;;;;;10.77;4.28;;;;;;;;;;6215043;28;20132;-65
2023/09/13 06:29:49;;;;;;;8.50;3.92;;;;;;;;;;6224476;28;20076;-65
2023/09/13 06:32:53;;;;;;;10.30;4.43;;;;;;;;;;6223643;28;20038;-72
2023/09/13 06:36:12;;;;;;;10.85;4.25;;;;;;;;;;6224459;28;20046;-64
2023/09/13 06:39:15;;;;;;;7.25;4.90;;;;;;;;;;6221898;28;20124;-70
2023/09/13 06:42:17;;;;;;;8.68;3.88;;;;;;;;;;6223646;28;20054;-70
2023/09/13 06:45:29;;;;;;;6.47;3.00;;;;;;;;;;6217397;28;20080;-70
2023/09/13 06:48:33;;;;;;;9.82;3.67;;;;;;;;;;6214998;28;20081;-69
2023/09/13 06:51:38;;;;;;;5.43;3.83;;;;;;;;;;6215330;28;20092;-69
2023/09/13 06:54:42;;;;;;;7.53;4.13;;;;;;;;;;6223432;28;20124;-68
2023/09/13 07:10:39;;;;;;;7.90;4.03;;;;;;;;;;6288541;27;20694;-70
2023/09/13 07:13:41;;;;;;;6.00;3.30;;;;;;;;;;6265813;27;20136;-70
2023/09/13 07:16:43;;;;;;;7.97;3.38;;;;;;;;;;6252274;27;20048;-70
2023/09/13 07:19:45;;;;;;;5.90;3.47;;;;;;;;;;6266080;27;20045;-70
2023/09/13 07:22:47;;;;;;;7.32;3.00;;;;;;;;;;6251153;28;20041;-70
2023/09/13 07:25:49;;;;;;;7.03;3.78;;;;;;;;;;6245949;28;20076;-70
2023/09/13 07:28:52;;;;;;;6.18;3.13;;;;;;;;;;6234150;27;20515;-70
2023/09/13 07:31:54;;;;;;;7.57;3.65;;;;;;;;;;6227599;28;20142;-70
2023/09/13 07:34:56;;;;;;;7.30;3.55;;;;;;;;;;6247591;27;20592;-71
2023/09/13 07:37:58;;;;;;;5.72;3.20;;;;;;;;;;6246312;27;20044;-69
2023/09/13 07:41:01;;;;;;;5.22;3.80;;;;;;;;;;6252741;28;20368;-71
2023/09/13 07:44:03;;;;;;;8.98;3.85;;;;;;;;;;6253496;27;20049;-70
2023/09/13 07:47:05;;;;;;;7.43;4.38;;;;;;;;;;6254541;27;20056;-71
2023/09/13 07:50:27;;;;;;;5.70;3.63;;;;;;;;;;6256940;27;20029;-69
2023/09/13 07:53:29;;;;;;;8.38;3.80;;;;;;;;;;6309686;27;20056;-71
2023/09/13 07:56:33;;;;;;;5.97;3.20;;;;;;;;;;6289914;27;20053;-70
2023/09/13 07:59:35;;;;;;;11.15;3.35;;;;;;;;;;6262634;27;20641;-69
2023/09/13 08:02:37;;;;;;;7.53;3.92;;;;;;;;;;6258813;28;20061;-70
2023/09/13 08:05:39;;;;;;;8.30;3.25;;;;;;;;;;6263133;27;20047;-71
2023/09/13 08:08:41;;;;;;;11.65;3.85;;;;;;;;;;6263701;27;20048;-69
2023/09/13 08:11:46;;;;;;;7.25;3.72;;;;;;;;;;6235440;27;20182;-69
2023/09/13 08:14:48;;;;;;;;;;;;;;;;;;6246496;27;20045;-69
2023/09/13 08:17:51;;;;;;;8.52;3.28;;;;;;;;;;6226626;28;19925;-69
2023/09/13 08:20:53;;;;;;;5.75;3.15;;;;;;;;;;6276552;27;20067;-68
2023/09/13 08:23:55;;;;;;;6.80;3.28;;;;;;;;;;6295982;28;20206;-69
2023/09/13 08:26:57;;;;;;;6.82;3.83;;;;;;;;;;6278164;27;20057;-69
2023/09/13 08:29:59;;;;;;;11.98;3.13;;;;;;;;;;6265654;27;20041;-68
2023/09/13 08:33:01;;;;;;;6.63;3.08;;;;;;;;;;6286778;28;20040;-69
2023/09/13 08:36:04;;;;;;;6.75;3.35;;;;;;;;;;6244330;28;20124;-69
2023/09/13 08:39:06;;;;;;;7.35;3.20;;;;;;;;;;6246577;27;20047;-70
2023/09/13 08:42:09;;;;;;;6.30;3.10;;;;;;;;;;6331699;27;20082;-68
2023/09/13 08:45:13;;;;;;;10.10;3.15;;;;;;;;;;6240122;28;20064;-69
2023/09/13 08:48:16;;;;;;;5.75;3.47;;;;;;;;;;6294401;28;20061;-68
2023/09/13 08:51:19;;;;;;;6.03;2.97;;;;;;;;;;6231423;28;20064;-68
2023/09/13 08:54:22;;;;;;;6.95;4.60;;;;;;;;;;6227911;28;20439;-66
2023/09/13 08:57:25;;;;;;;5.32;3.33;;;;;;;;;;6334671;27;20550;-67
2023/09/13 09:00:31;;;;;;;11.07;4.05;;;;;;;;;;6237395;27;20050;-67
2023/09/13 09:03:34;;;;;;;7.70;3.78;;;;;;;;;;6227946;27;20100;-68
2023/09/13 09:06:37;;;;;;;11.18;3.42;;;;;;;;;;6238696;28;20636;-68
2023/09/13 09:09:39;;;;;;;10.10;3.47;;;;;;;;;;6234572;28;20458;-70
2023/09/13 09:12:45;;;;;;;6.88;2.92;;;;;;;;;;6281253;27;20049;-69
2023/09/13 09:15:47;;;;;;;7.97;3.28;;;;;;;;;;6250930;27;20122;-69
2023/09/13 09:18:50;;;;;;;5.60;2.80;;;;;;;;;;6244273;27;20122;-69
2023/09/13 09:21:52;;;;;;;8.15;3.10;;;;;;;;;;6265189;27;20058;-74
2023/09/13 09:24:55;;;;;;;6.80;2.95;;;;;;;;;;6252958;27;20143;-71
2023/09/13 09:27:57;;;;;;;6.45;2.55;;;;;;;;;;6227508;28;20041;-72
2023/09/13 09:31:01;;;;;;;5.47;2.72;;;;;;;;;;6247149;27;20049;-71
2023/09/13 09:34:03;;;;;;;7.57;2.67;;;;;;;;;;6261264;27;20046;-70
2023/09/13 09:37:07;;;;;;;5.68;2.90;;;;;;;;;;6289102;27;20047;-73
2023/09/13 09:40:11;;;;;;;6.95;2.40;;;;;;;;;;6248787;28;20046;-74
2023/09/13 09:43:13;;;;;;;9.02;3.28;;;;;;;;;;6252905;27;20053;-73
2023/09/13 09:46:15;;;;;;;8.05;2.70;;;;;;;;;;6246807;27;20073;-68
2023/09/13 09:49:17;;;;;;;10.10;3.15;;;;;;;;;;6258671;27;20046;-68
2023/09/13 09:52:19;;;;;;;7.78;2.90;;;;;;;;;;6235948;28;20049;-67
2023/09/13 09:55:23;;;;;;;7.07;2.97;;;;;;;;;;6243013;27;20067;-68
2023/09/13 09:58:25;;;;;;;5.35;2.72;;;;;;;;;;6249016;27;20050;-68
2023/09/13 10:01:27;;;;;;;4.70;2.50;;;;;;;;;;6215855;28;20531;-68
2023/09/13 10:04:44;;;;;;;8.23;2.47;;;;;;;;;;6234207;27;20057;-76
2023/09/13 10:07:50;;;;;;;5.00;2.63;;;;;;;;;;6227682;28;20045;-75
2023/09/13 10:10:56;;;;;;;9.05;2.17;;;;;;;;;;6215638;28;20652;-74
2023/09/13 10:13:58;;;;;;;9.25;4.50;;;;;;;;;;6247834;27;20439;-75
2023/09/13 10:17:03;;;;;;;8.80;2.38;;;;;;;;;;6237895;28;20133;-74
2023/09/13 10:20:06;;;;;;;7.38;2.70;;;;;;;;;;6266928;27;20544;-75
2023/09/13 10:23:11;;;;;;;6.03;2.60;;;;;;;;;;6229535;28;20516;-69
2023/09/13 10:26:14;;;;;;;6.68;3.00;;;;;;;;;;6228478;28;20062;-69
2023/09/13 10:29:41;;;;;;;6.60;2.25;;;;;;;;;;6292146;27;20175;-69
2023/09/13 10:32:47;;;;;;;5.10;2.33;;;;;;;;;;6255810;27;20059;-70
2023/09/13 10:35:54;;;;;;;6.75;2.47;;;;;;;;;;6314901;27;20079;-68
2023/09/13 10:39:32;;;;;;;6.00;2.78;;;;;;;;;;6231647;27;20027;-74
2023/09/13 10:42:37;;;;;;;11.60;2.53;;;;;;;;;;6261021;27;20134;-70
2023/09/13 10:45:41;;;;;;;5.22;3.08;;;;;;;;;;6237487;27;20053;-69
2023/09/13 10:48:45;;;;;;;6.32;3.53;;;;;;;;;;6245637;28;20443;-76
2023/09/13 10:51:48;;;;;;;5.82;3.47;;;;;;;;;;6244742;27;20058;-76
2023/09/13 10:54:52;;;;;;;5.88;4.50;;;;;;;;;;6231243;28;20416;-75
2023/09/13 10:57:55;;;;;;;5.60;2.28;;;;;;;;;;6238377;28;20049;-78
2023/09/13 11:00:58;;;;;;;4.70;2.28;;;;;;;;;;6236425;28;20038;-74
2023/09/13 11:04:00;;;;;;;8.60;3.13;;;;;;;;;;6253322;28;20047;-76
2023/09/13 11:07:04;;;;;;;4.97;2.90;;;;;;;;;;6243380;28;20132;-75
2023/09/13 11:10:12;;;;;;;5.57;2.40;;;;;;;;;;6270986;28;20045;-75
2023/09/13 11:13:14;;;;;;;6.80;2.72;;;;;;;;;;6214543;28;20042;-75
2023/09/13 11:16:17;;;;;;;6.10;3.03;;;;;;;;;;6230163;28;20045;-74
2023/09/13 11:19:30;;;;;;;6.15;2.90;;;;;;;;;;6250308;28;20043;-75
2023/09/13 11:22:39;;;;;;;7.00;2.47;;;;;;;;;;6269719;28;20525;-74
2023/09/13 11:25:42;;;;;;;7.80;2.53;;;;;;;;;;6257846;28;20115;-74
2023/09/13 11:29:19;;;;;;;7.75;2.35;;;;;;;;;;6229713;28;20049;-74
2023/09/13 11:32:26;;;;;;;5.32;2.15;;;;;;;;;;6226058;28;20065;-75
2023/09/13 11:35:30;;;;;;;5.55;2.10;;;;;;;;;;6261549;28;20029;-75
2023/09/13 11:38:35;;;;;;;11.90;3.95;;;;;;;;;;6674930;22;20060;-74
2023/09/13 11:41:39;;;;;;;7.18;2.67;;;;;;;;;;6299504;22;20058;-66
2023/09/13 11:44:44;;;;;;;9.23;2.45;;;;;;;;;;6305071;28;20151;-66
2023/09/13 11:48:04;;;;;;;10.13;2.50;;;;;;;;;;6297173;28;20045;-66
2023/09/13 11:51:17;;;;;;;8.90;2.35;;;;;;;;;;6310850;28;20431;-66
2023/09/13 11:54:24;;;;;;;;;;;;;;;;;;6298190;28;20842;-66
2023/09/13 11:58:06;;;;;;;7.30;2.45;;;;;;;;;;6313807;28;19920;-66
2023/09/13 12:01:24;;;;;;;6.47;2.10;;;;;;;;;;6184523;28;20129;-66
2023/09/13 12:04:30;;;;;;;10.15;2.55;;;;;;;;;;6185027;28;20473;-66
2023/09/13 12:07:35;;;;;;;6.88;2.55;;;;;;;;;;6313330;28;20048;-66
2023/09/13 12:10:40;;;;;;;7.90;2.45;;;;;;;;;;6311538;28;20065;-66
2023/09/13 12:13:46;;;;;;;4.03;2.22;;;;;;;;;;6306774;28;20070;-66
2023/09/13 12:16:53;;;;;;;6.72;2.90;;;;;;;;;;6302132;28;20438;-66
2023/09/13 12:19:56;;;;;;;;;;;;;;;;;;6306141;28;20544;-67
2023/09/13 12:22:58;;;;;;;5.93;2.53;;;;;;;;;;6293642;28;20047;-66
2023/09/13 12:26:00;;;;;;;7.25;2.85;;;;;;;;;;6305759;28;20829;-67
2023/09/13 12:29:04;;;;;;;6.15;2.15;;;;;;;;;;6313901;28;20047;-67
2023/09/13 12:32:06;;;;;;;10.68;2.17;;;;;;;;;;6314254;28;20051;-67
2023/09/13 12:35:08;;;;;;;4.85;2.17;;;;;;;;;;6307534;28;20052;-67
2023/09/13 12:38:12;;;;;;;4.47;1.73;;;;;;;;;;6313875;28;20040;-67
2023/09/13 12:41:19;;;;;;;6.35;2.45;;;;;;;;;;6307099;28;20654;-67
2023/09/13 12:44:21;;;;;;;6.68;2.13;;;;;;;;;;6310827;28;20046;-66
2023/09/13 12:47:24;;;;;;;4.82;1.52;;;;;;;;;;6313299;28;20048;-68
2023/09/13 12:50:27;;;;;;;5.00;2.05;;;;;;;;;;6313454;28;20412;-67
2023/09/13 12:53:36;;;;;;;5.40;1.30;;;;;;;;;;6303183;28;20044;-67
2023/09/13 12:56:39;;;;;;;5.05;2.40;;;;;;;;;;6306136;28;20544;-67
2023/09/13 12:59:43;;;;;;;5.28;1.38;;;;;;;;;;6298760;28;20048;-68
2023/09/13 13:02:53;;;;;;;4.18;1.50;;;;;;;;;;6296455;28;20054;-69
2023/09/13 13:05:58;;;;;;;6.05;1.77;;;;;;;;;;6297294;28;20047;-68
2023/09/13 13:09:06;;;;;;;5.10;1.33;;;;;;;;;;6299496;28;20040;-68
2023/09/13 13:12:14;;;;;;;5.97;1.77;;;;;;;;;;6300655;28;20048;-67
2023/09/13 13:15:17;;;;;;;6.60;1.95;;;;;;;;;;6303023;28;20053;-68
2023/09/13 13:18:19;;;;;;;6.55;1.85;;;;;;;;;;6280952;28;20048;-68
2023/09/13 13:21:23;;;;;;;6.47;2.00;;;;;;;;;;6283893;28;20055;-67
2023/09/13 13:24:40;;;;;;;8.32;2.03;;;;;;;;;;6304585;28;20112;-67
2023/09/13 13:27:42;;;;;;;8.20;1.70;;;;;;;;;;6312391;28;20068;-67
2023/09/13 13:30:46;;;;;;;6.07;3.47;;;;;;;;;;6310623;28;20575;-67
2023/09/13 13:33:48;;;;;;;9.63;2.05;;;;;;;;;;6297442;28;20047;-67
2023/09/13 13:36:50;;;;;;;7.55;1.88;;;;;;;;;;6307398;28;20101;-67
2023/09/13 13:39:52;;;;;;;9.15;1.55;;;;;;;;;;6298792;28;20044;-67
2023/09/13 13:42:54;;;;;;;6.70;1.60;;;;;;;;;;6282049;28;20051;-67
2023/09/13 13:45:56;;;;;;;5.05;1.65;;;;;;;;;;6293627;28;20534;-68
2023/09/13 13:48:59;;;;;;;5.43;1.70;;;;;;;;;;6293259;28;20178;-68
2023/09/13 13:52:01;;;;;;;5.07;1.80;;;;;;;;;;6304488;28;20089;-68
2023/09/13 13:55:03;;;;;;;7.45;2.10;;;;;;;;;;6303277;28;20565;-67
2023/09/13 13:58:05;;;;;;;4.40;1.80;;;;;;;;;;6310168;28;20138;-67
2023/09/13 14:01:07;;;;;;;5.25;1.67;;;;;;;;;;6302152;28;20043;-68
2023/09/13 14:04:10;;;;;;;6.20;2.28;;;;;;;;;;6295425;28;20048;-68
2023/09/13 14:07:12;;;;;;;6.20;3.20;;;;;;;;;;6291416;28;20445;-68
2023/09/13 14:10:14;;;;;;;8.85;2.03;;;;;;;;;;6300154;28;20041;-67
2023/09/13 14:13:18;;;;;;;9.05;2.42;;;;;;;;;;6299612;28;20066;-68
2023/09/13 14:16:21;;;;;;;6.65;2.17;;;;;;;;;;6298860;28;20101;-67
2023/09/13 14:19:23;;;;;;;6.00;1.75;;;;;;;;;;6298868;28;20067;-68
2023/09/13 14:22:25;;;;;;;7.85;1.90;;;;;;;;;;6299915;28;20059;-67
2023/09/13 14:25:27;;;;;;;10.55;2.05;;;;;;;;;;6300187;28;20048;-67
2023/09/13 14:28:31;;;;;;;7.97;2.20;;;;;;;;;;6304463;28;20044;-67
2023/09/13 14:31:36;;;;;;;8.70;2.08;;;;;;;;;;6296608;28;20052;-67
2023/09/13 14:34:42;;;;;;;7.00;2.13;;;;;;;;;;6298574;28;20169;-68
2023/09/13 14:37:44;;;;;;;4.90;2.03;;;;;;;;;;6283490;28;20083;-67
2023/09/13 14:40:46;;;;;;;7.78;1.90;;;;;;;;;;6303031;28;20039;-67
2023/09/13 14:43:49;;;;;;;13.07;2.10;;;;;;;;;;6293521;28;20048;-66
2023/09/13 14:46:52;;;;;;;7.88;2.17;;;;;;;;;;6301311;28;20055;-67
2023/09/13 14:49:54;;;;;;;6.35;1.75;;;;;;;;;;6296725;28;20044;-67
2023/09/13 14:52:57;;;;;;;6.20;2.17;;;;;;;;;;6306539;28;20549;-67
2023/09/13 14:55:59;;;;;;;5.35;1.80;;;;;;;;;;6291599;28;20052;-68
2023/09/13 14:59:02;;;;;;;7.03;1.67;;;;;;;;;;6280529;28;20040;-69
2023/09/13 15:02:04;;;;;;;7.05;1.70;;;;;;;;;;6298029;28;20055;-69
2023/09/13 15:05:07;;;;;;;5.80;1.83;;;;;;;;;;6291564;28;20123;-67
2023/09/13 15:08:09;;;;;;;33.03;4.18;;;;;;;;;;6301095;28;20131;-67
2023/09/13 15:11:11;;;;;;;29.02;3.47;;;;;;;;;;6272300;28;20044;-68
2023/09/13 15:14:13;;;;;;;9.02;2.40;;;;;;;;;;6295961;28;20540;-67
2023/09/13 15:17:15;;;;;;;6.80;1.83;;;;;;;;;;6290137;28;20051;-67
2023/09/13 15:20:17;;;;;;;6.07;1.83;;;;;;;;;;6306780;28;20143;-68
2023/09/13 15:23:19;;;;;;;11.20;1.88;;;;;;;;;;6308703;28;20343;-68
2023/09/13 15:26:22;;;;;;;10.00;1.95;;;;;;;;;;6292301;28;20462;-67
2023/09/13 15:29:24;;;;;;;7.15;1.95;;;;;;;;;;6286939;28;20055;-67
2023/09/13 15:32:26;;;;;;;9.23;1.80;;;;;;;;;;6305278;28;20047;-66
2023/09/13 15:35:28;;;;;;;7.90;1.70;;;;;;;;;;6308958;28;20190;-66
2023/09/13 15:38:30;;;;;;;7.65;1.70;;;;;;;;;;6297305;28;20044;-66
2023/09/13 15:41:33;;;;;;;4.18;1.67;;;;;;;;;;6301372;28;20052;-67
2023/09/13 15:44:35;;;;;;;9.30;2.78;;;;;;;;;;6295743;28;20436;-66
2023/09/13 15:47:37;;;;;;;9.27;2.72;;;;;;;;;;6293382;28;20445;-67
2023/09/13 15:50:39;;;;;;;8.68;1.88;;;;;;;;;;6302513;28;20041;-67
2023/09/13 15:53:42;;;;;;;6.75;1.88;;;;;;;;;;6308232;28;20085;-66
2023/09/13 15:56:44;;;;;;;7.05;2.00;;;;;;;;;;6310555;28;20052;-67
2023/09/13 15:59:46;;;;;;;6.88;2.15;;;;;;;;;;6309740;28;20056;-68
2023/09/13 16:02:48;;;;;;;9.52;2.15;;;;;;;;;;6276943;28;20091;-67
2023/09/13 16:05:51;;;;;;;15.00;2.35;;;;;;;;;;6289114;28;20476;-67
2023/09/13 16:08:53;;;;;;;5.32;2.28;;;;;;;;;;6297485;28;20190;-69
2023/09/13 16:11:55;;;;;;;13.43;2.90;;;;;;;;;;6307482;28;20049;-67
2023/09/13 16:14:57;;;;;;;12.38;3.50;;;;;;;;;;6311749;28;20438;-66
2023/09/13 16:17:59;;;;;;;10.93;3.47;;;;;;;;;;6311804;28;20501;-66
2023/09/13 16:21:01;;;;;;;26.60;3.92;;;;;;;;;;6284045;28;20040;-66
2023/09/13 16:24:04;;;;;;;23.67;3.17;;;;;;;;;;6302805;28;20051;-66
2023/09/13 16:27:06;;;;;;;8.18;2.20;;;;;;;;;;6308229;28;20178;-66
2023/09/13 16:30:11;;;;;;;7.82;2.95;;;;;;;;;;6305597;28;20117;-66
2023/09/13 16:33:13;;;;;;;6.32;2.20;;;;;;;;;;6308950;28;20101;-66
2023/09/13 16:36:16;;;;;;;6.28;3.03;;;;;;;;;;6312554;28;20055;-66
2023/09/13 16:39:19;;;;;;;8.93;5.35;;;;;;;;;;6308284;28;20072;-66
2023/09/13 16:42:21;;;;;;;6.88;2.33;;;;;;;;;;6301983;28;20048;-66
2023/09/13 16:45:26;;;;;;;6.05;2.20;;;;;;;;;;6306222;28;20047;-66
2023/09/13 16:48:28;;;;;;;6.43;3.92;;;;;;;;;;6313306;28;20703;-66
2023/09/13 16:51:36;;;;;;;8.60;3.20;;;;;;;;;;6301440;28;20059;-66
2023/09/13 16:54:39;;;;;;;7.50;2.78;;;;;;;;;;6296025;28;20056;-66
2023/09/13 16:57:42;;;;;;;10.10;6.18;;;;;;;;;;6305713;28;20048;-66
2023/09/13 17:00:44;;;;;;;13.15;7.28;;;;;;;;;;6303338;28;20044;-67
2023/09/13 17:03:48;;;;;;;11.13;3.28;;;;;;;;;;6312585;28;20108;-66
2023/09/13 17:06:51;;;;;;;19.05;12.32;;;;;;;;;;6287195;28;20048;-66
2023/09/13 17:09:53;;;;;;;18.23;6.85;;;;;;;;;;6307961;28;20036;-67
2023/09/13 17:12:56;;;;;;;109.75;91.68;;;;;;;;;;6303218;28;20127;-67
2023/09/13 17:15:58;;;;;;;94.60;83.13;;;;;;;;;;6284431;28;20129;-66
2023/09/13 17:19:00;;;;;;;127.35;104.60;;;;;;;;;;6299339;28;20655;-66
2023/09/13 17:22:02;;;;;;;45.17;35.00;;;;;;;;;;6293772;28;20124;-67
2023/09/13 17:25:05;;;;;;;31.40;24.90;;;;;;;;;;6307789;28;20051;-66
2023/09/13 17:28:08;;;;;;;28.05;17.88;;;;;;;;;;6305458;28;20054;-68
2023/09/13 17:31:10;;;;;;;96.30;67.43;;;;;;;;;;6304758;28;20044;-67
2023/09/13 17:34:13;;;;;;;18.17;11.90;;;;;;;;;;6312226;28;20059;-67
2023/09/13 17:37:15;;;;;;;87.72;58.13;;;;;;;;;;6305492;28;20086;-67
2023/09/13 17:40:17;;;;;;;17.63;11.48;;;;;;;;;;6301760;28;20054;-67
2023/09/13 17:43:21;;;;;;;35.00;22.65;;;;;;;;;;6305734;28;20093;-66
2023/09/13 17:46:23;;;;;;;16.60;7.68;;;;;;;;;;6311949;28;20147;-66
2023/09/13 17:49:25;;;;;;;8.98;3.80;;;;;;;;;;6288477;28;20134;-66
2023/09/13 17:52:27;;;;;;;9.98;3.58;;;;;;;;;;6286740;28;20068;-66
2023/09/13 17:55:30;;;;;;;5.90;3.17;;;;;;;;;;6297315;28;20048;-66
2023/09/13 17:58:32;;;;;;;7.72;2.53;;;;;;;;;;6291123;28;20052;-66
2023/09/13 18:01:34;;;;;;;7.38;4.18;;;;;;;;;;6302755;28;20446;-66
2023/09/13 18:04:36;;;;;;;6.63;2.53;;;;;;;;;;6290883;28;20052;-67
2023/09/13 18:07:40;;;;;;;15.68;9.90;;;;;;;;;;6294712;28;20061;-67
2023/09/13 18:10:43;;;;;;;21.13;17.83;;;;;;;;;;6299150;28;20329;-67
2023/09/13 18:13:46;;;;;;;18.42;15.50;;;;;;;;;;6290211;28;20205;-68
2023/09/13 18:16:49;;;;;;;11.57;8.57;;;;;;;;;;6309787;28;20450;-67
2023/09/13 18:19:51;;;;;;;5.93;4.72;;;;;;;;;;6298478;28;20419;-67
2023/09/13 18:22:53;;;;;;;7.28;3.92;;;;;;;;;;6310737;28;20050;-66
2023/09/13 18:25:55;;;;;;;8.40;4.32;;;;;;;;;;6303459;28;20055;-67
2023/09/13 18:28:59;;;;;;;9.02;2.63;;;;;;;;;;6295082;28;20076;-66
2023/09/13 18:32:02;;;;;;;4.72;2.38;;;;;;;;;;6302043;28;20121;-66